Time;durP1;ratioP1;P1;durP2;ratioP2;P2;SDS_P1;SDS_P2;PMS_P1;PMS_P2;Temp;Humidity;BMP_temperature;BMP_pressure;BME280_temperature;BME280_humidity;BME280_pressure;Samples;Min_cycle;Max_cycle;Signal;HPM_P1;HPM_P2
2023/09/02 00:00:18;;;;;;;4.50;2.33;;;;;;;20.21;65.00;101581.34;4988187;28;20030;-53
2023/09/02 00:02:43;;;;;;;2.70;2.03;;;;;;;20.20;64.84;101583.22;4988325;28;20038;-53
2023/09/02 00:05:08;;;;;;;5.35;2.25;;;;;;;20.19;64.71;101578.78;4988238;28;20473;-53
2023/09/02 00:07:34;;;;;;;3.17;1.90;;;;;;;20.21;64.75;101584.91;4988068;28;20034;-53
2023/09/02 00:09:59;;;;;;;2.75;2.17;;;;;;;20.20;64.81;101583.22;4985436;28;20126;-53
2023/09/02 00:12:24;;;;;;;2.35;1.98;;;;;;;20.20;64.85;101576.94;4990078;28;20114;-53
2023/09/02 00:14:50;;;;;;;3.22;1.92;;;;;;;20.19;64.59;101570.69;4990225;28;20039;-53
2023/09/02 00:17:15;;;;;;;3.22;2.20;;;;;;;20.19;65.01;101570.69;4990190;28;20058;-53
2023/09/02 00:19:41;;;;;;;2.00;1.83;;;;;;;20.18;64.86;101579.81;4990350;28;20041;-53
2023/09/02 00:22:07;;;;;;;2.17;1.95;;;;;;;20.17;64.96;101578.09;4989997;28;20080;-53
2023/09/02 00:24:33;;;;;;;3.75;1.80;;;;;;;20.19;64.71;101583.34;4988816;28;20484;-53
2023/09/02 00:26:58;;;;;;;2.67;2.03;;;;;;;20.17;64.71;101583.50;4988927;28;20026;-53
2023/09/02 00:29:24;;;;;;;2.10;1.90;;;;;;;20.17;64.72;101586.19;4990545;28;20042;-53
2023/09/02 00:31:49;;;;;;;2.20;2.00;;;;;;;20.18;64.80;101587.91;4988462;28;20030;-52
2023/09/02 00:34:15;;;;;;;2.13;1.90;;;;;;;20.17;65.06;101583.50;4987532;28;20042;-53
2023/09/02 00:36:40;;;;;;;2.30;1.98;;;;;;;20.16;64.76;101586.34;4987464;28;20042;-53
2023/09/02 00:39:06;;;;;;;2.90;2.13;;;;;;;20.16;65.05;101587.19;4988104;28;20044;-53
2023/09/02 00:41:48;;;;;;;3.45;2.30;;;;;;;20.16;64.54;101587.19;4987440;28;20477;-53
2023/09/02 00:44:14;;;;;;;3.75;2.33;;;;;;;20.16;64.57;101589.03;4984804;28;20560;-53
2023/09/02 00:46:39;;;;;;;1.90;1.80;;;;;;;20.16;64.47;101587.19;4992448;28;20040;-53
2023/09/02 00:49:05;;;;;;;2.40;2.20;;;;;;;20.15;64.83;101588.19;4986131;28;20480;-53
2023/09/02 00:51:30;;;;;;;2.60;1.95;;;;;;;20.16;64.68;101589.03;4986645;28;20038;-53
2023/09/02 00:53:56;;;;;;;2.65;1.88;;;;;;;20.16;64.70;101589.03;4987111;28;20062;-53
2023/09/02 00:56:22;;;;;;;2.70;2.00;;;;;;;20.15;64.63;101590.06;4988036;28;20030;-53
2023/09/02 00:58:48;;;;;;;3.47;1.92;;;;;;;20.16;64.65;101594.44;4988225;28;20093;-53
2023/09/02 01:01:13;;;;;;;2.85;1.88;;;;;;;20.15;64.68;101590.91;4988609;28;20444;-53
2023/09/02 01:03:40;;;;;;;1.95;1.73;;;;;;;20.14;64.80;101581.06;4995003;28;20534;-53
2023/09/02 01:06:07;;;;;;;1.70;1.60;;;;;;;20.13;64.67;101587.47;4992989;28;20030;-53
2023/09/02 01:08:33;;;;;;;2.10;1.90;;;;;;;20.14;64.76;101589.16;4987939;28;20600;-53
2023/09/02 01:10:59;;;;;;;2.40;2.20;;;;;;;20.13;65.06;101587.47;4986925;28;20029;-53
2023/09/02 01:13:25;;;;;;;2.97;1.83;;;;;;;20.14;64.75;101588.31;4988088;28;20471;-53
2023/09/02 01:15:54;;;;;;;1.98;1.88;;;;;;;20.14;65.21;101593.72;4987835;28;20053;-53
2023/09/02 01:18:20;;;;;;;3.80;2.10;;;;;;;20.13;64.99;101602.84;4989690;28;20062;-52
2023/09/02 01:21:17;;;;;;;4.03;2.00;;;;;;;20.15;64.88;101599.00;4990682;28;20048;-53
2023/09/02 01:24:01;;;;;;;3.78;1.90;;;;;;;20.13;65.04;101598.28;4987394;28;20027;-53
2023/09/02 01:26:35;;;;;;;1.90;1.67;;;;;;;20.13;65.01;101590.19;4986580;28;20447;-53
2023/09/02 01:29:06;;;;;;;4.25;2.30;;;;;;;20.12;64.96;101591.16;4986671;28;20421;-53
2023/09/02 01:31:33;;;;;;;4.40;1.90;;;;;;;20.11;64.81;101601.13;4986757;28;20065;-53
2023/09/02 01:34:00;;;;;;;2.90;1.75;;;;;;;20.11;65.04;101600.28;4989753;28;20046;-53
2023/09/02 01:36:28;;;;;;;3.17;2.03;;;;;;;20.12;64.76;101607.38;4987155;28;20552;-53
2023/09/02 01:38:54;;;;;;;1.50;1.40;;;;;;;20.11;64.52;101598.44;4985524;28;20027;-53
2023/09/02 01:41:22;;;;;;;2.38;1.92;;;;;;;20.10;64.63;101594.03;4986757;28;20067;-53
2023/09/02 01:43:48;;;;;;;3.35;1.85;;;;;;;20.10;64.83;101602.16;4986279;28;20038;-53
2023/09/02 01:46:15;;;;;;;2.08;1.85;;;;;;;20.10;64.99;101599.44;4986334;28;20072;-53
2023/09/02 01:48:40;;;;;;;2.53;1.90;;;;;;;20.11;64.87;101601.13;4986997;28;20064;-53
2023/09/02 01:51:06;;;;;;;2.97;2.13;;;;;;;20.11;64.57;101611.94;4987007;28;20030;-53
2023/09/02 01:53:32;;;;;;;2.10;1.90;;;;;;;20.11;64.54;101613.81;4986724;28;20053;-52
2023/09/02 01:55:58;;;;;;;2.03;1.60;;;;;;;20.11;64.95;101617.34;4987210;28;20038;-53
2023/09/02 01:58:24;;;;;;;2.85;1.77;;;;;;;20.12;64.38;101610.09;4987177;28;20049;-52
2023/09/02 02:00:50;;;;;;;2.10;1.80;;;;;;;20.13;64.97;101614.53;4987492;28;20081;-53
2023/09/02 02:03:23;;;;;;;1.80;1.60;;;;;;;20.12;64.66;101623.63;4987542;28;20035;-53
2023/09/02 02:05:52;;;;;;;1.77;1.67;;;;;;;20.13;65.19;101622.63;4987292;28;20124;-53
2023/09/02 02:08:31;;;;;;;2.72;2.05;;;;;;;20.14;65.49;101621.63;4986677;28;20056;-53
2023/09/02 02:11:01;;;;;;;3.15;2.00;;;;;;;20.13;65.61;101614.53;4990374;28;20037;-53
2023/09/02 02:13:26;;;;;;;1.80;1.70;;;;;;;20.13;65.15;101619.94;4986573;28;20515;-53
2023/09/02 02:15:52;;;;;;;2.88;1.90;;;;;;;20.12;65.46;101620.91;4984891;28;20058;-53
2023/09/02 02:18:18;;;;;;;5.07;2.38;;;;;;;20.14;65.13;101620.78;4985046;28;20085;-53
2023/09/02 02:20:58;;;;;;;4.22;2.20;;;;;;;20.13;65.07;101630.75;4985876;28;20042;-53
2023/09/02 02:23:24;;;;;;;2.70;2.00;;;;;;;20.14;65.12;101629.72;4992988;28;20047;-53
2023/09/02 02:25:49;;;;;;;2.30;1.77;;;;;;;20.14;64.69;101627.03;4989727;28;20034;-53
2023/09/02 02:28:14;;;;;;;2.00;1.77;;;;;;;20.14;65.19;101626.19;4986439;28;20053;-52
2023/09/02 02:30:40;;;;;;;2.08;1.88;;;;;;;20.13;65.22;101628.03;4986398;28;20037;-53
2023/09/02 02:33:05;;;;;;;3.33;1.63;;;;;;;20.13;65.23;101630.75;4986342;28;20068;-53
2023/09/02 02:35:32;;;;;;;2.40;2.00;;;;;;;20.12;65.35;101629.03;4986590;28;20110;-53
2023/09/02 02:37:59;;;;;;;3.40;1.80;;;;;;;20.11;65.14;101627.31;4986354;28;20043;-53
2023/09/02 02:40:25;;;;;;;4.85;1.80;;;;;;;20.13;65.20;101632.59;4987446;28;20030;-53
2023/09/02 02:42:50;;;;;;;3.25;1.80;;;;;;;20.13;65.19;101629.91;4987191;28;20038;-53
2023/09/02 02:45:15;;;;;;;1.90;1.40;;;;;;;20.11;65.74;101628.16;5000975;28;20042;-53
2023/09/02 02:47:41;;;;;;;1.70;1.60;;;;;;;20.13;65.65;101638.00;4986239;28;20045;-53
2023/09/02 02:50:06;;;;;;;2.03;1.65;;;;;;;20.13;65.25;101635.31;4992344;28;20507;-53
2023/09/02 02:52:32;;;;;;;3.80;1.67;;;;;;;20.12;65.73;101634.44;4986356;28;20037;-53
2023/09/02 02:54:57;;;;;;;2.67;1.67;;;;;;;20.12;65.97;101637.13;4992572;28;20042;-53
2023/09/02 02:57:23;;;;;;;2.03;1.83;;;;;;;20.12;65.87;101639.84;4985902;28;20040;-53
2023/09/02 02:59:51;;;;;;;1.80;1.70;;;;;;;20.11;65.60;101641.69;4987284;28;20120;-53
2023/09/02 03:02:16;;;;;;;2.40;1.90;;;;;;;20.13;65.65;101640.72;4984902;28;20030;-53
2023/09/02 03:04:46;;;;;;;2.28;1.80;;;;;;;20.12;65.33;101637.13;4986276;28;20045;-53
2023/09/02 03:07:12;;;;;;;3.00;2.00;;;;;;;20.11;65.77;101639.00;4986833;28;20060;-53
2023/09/02 03:09:37;;;;;;;1.83;1.70;;;;;;;20.11;65.41;101639.00;4986743;28;20035;-53
2023/09/02 03:12:03;;;;;;;5.03;2.03;;;;;;;20.10;65.35;101637.28;4985605;28;20421;-53
2023/09/02 03:14:28;;;;;;;1.98;1.77;;;;;;;20.11;65.48;101628.16;4987218;28;20085;-53
2023/09/02 03:16:53;;;;;;;1.55;1.45;;;;;;;20.11;65.36;101638.13;4986147;28;20421;-53
2023/09/02 03:19:19;;;;;;;2.95;1.95;;;;;;;20.11;65.23;101636.28;4985476;28;20066;-53
2023/09/02 03:21:44;;;;;;;3.22;1.40;;;;;;;20.12;65.63;101634.44;4985461;28;20050;-53
2023/09/02 03:24:10;;;;;;;2.63;1.90;;;;;;;20.11;65.35;101632.72;4985270;28;20031;-53
2023/09/02 03:26:35;;;;;;;2.25;1.58;;;;;;;20.11;65.69;101632.72;4985255;28;20386;-53
2023/09/02 03:29:01;;;;;;;2.15;1.65;;;;;;;20.10;65.69;101634.59;4985832;28;20077;-53
2023/09/02 03:31:26;;;;;;;2.78;1.85;;;;;;;20.11;66.02;101630.03;4985539;28;20035;-53
2023/09/02 03:33:51;;;;;;;1.52;1.42;;;;;;;20.10;65.54;101637.28;4985784;28;20035;-53
2023/09/02 03:36:17;;;;;;;2.30;1.63;;;;;;;20.11;65.46;101638.13;4986483;28;20105;-53
2023/09/02 03:38:42;;;;;;;2.00;1.50;;;;;;;20.11;65.69;101632.72;4986068;28;20473;-53
2023/09/02 03:41:12;;;;;;;1.85;1.25;;;;;;;20.10;65.64;101637.28;4985915;28;20053;-53
2023/09/02 03:43:38;;;;;;;2.63;1.80;;;;;;;20.10;65.79;101637.28;4985055;28;20036;-53
2023/09/02 03:46:03;;;;;;;1.48;1.30;;;;;;;20.10;65.96;101636.41;4985499;28;20029;-53
2023/09/02 03:48:29;;;;;;;2.10;1.50;;;;;;;20.11;65.49;101643.53;4987154;28;20441;-53
2023/09/02 03:51:03;;;;;;;1.90;1.50;;;;;;;20.10;65.75;101647.22;4985849;28;20468;-53
2023/09/02 03:53:29;;;;;;;2.25;1.63;;;;;;;20.09;65.48;101657.19;4985606;28;20461;-52
2023/09/02 03:55:54;;;;;;;1.70;1.60;;;;;;;20.10;65.73;101652.63;4985342;28;20121;-53
2023/09/02 03:58:20;;;;;;;2.70;1.60;;;;;;;20.08;65.65;101655.47;4985798;28;20069;-53
2023/09/02 04:00:45;;;;;;;4.60;1.85;;;;;;;20.09;65.73;101661.75;4986112;28;20034;-53
2023/09/02 04:03:12;;;;;;;1.85;1.75;;;;;;;20.09;65.62;101654.50;4985879;28;20381;-53
2023/09/02 04:05:38;;;;;;;1.85;1.58;;;;;;;20.10;65.76;101658.03;4985622;28;20042;-53
2023/09/02 04:08:04;;;;;;;2.28;1.60;;;;;;;20.09;65.61;101651.78;4987545;28;20040;-53
2023/09/02 04:10:30;;;;;;;3.03;1.90;;;;;;;20.10;65.58;101655.34;4988424;28;20035;-53
2023/09/02 04:12:56;;;;;;;1.63;1.40;;;;;;;20.08;65.81;101654.63;4988359;28;20080;-53
2023/09/02 04:15:21;;;;;;;1.55;1.45;;;;;;;20.09;65.77;101654.50;4988191;28;20034;-53
2023/09/02 04:17:47;;;;;;;1.95;1.50;;;;;;;20.09;65.70;101653.66;4987503;28;20523;-52
2023/09/02 04:20:12;;;;;;;1.70;1.60;;;;;;;20.08;65.74;101650.06;4988528;28;20425;-53
2023/09/02 04:22:37;;;;;;;2.00;1.80;;;;;;;20.09;65.84;101659.06;4988404;28;20050;-53
2023/09/02 04:25:03;;;;;;;1.75;1.63;;;;;;;20.09;65.86;101659.06;4987604;28;20034;-53
2023/09/02 04:27:29;;;;;;;1.60;1.50;;;;;;;20.08;65.63;101657.34;4990187;28;20049;-53
2023/09/02 04:29:54;;;;;;;1.75;1.65;;;;;;;20.08;66.13;101651.94;4990052;28;20368;-53
2023/09/02 04:32:19;;;;;;;2.05;1.52;;;;;;;20.08;65.51;101654.63;4989226;28;20061;-53
2023/09/02 04:34:46;;;;;;;1.63;1.52;;;;;;;20.08;65.87;101662.75;4989384;28;20034;-53
2023/09/02 04:37:11;;;;;;;1.50;1.40;;;;;;;20.07;65.79;101675.41;4988918;28;20034;-53
2023/09/02 04:39:40;;;;;;;1.40;1.25;;;;;;;20.09;65.49;101677.97;4988737;28;20041;-53
2023/09/02 04:42:05;;;;;;;1.75;1.65;;;;;;;20.07;65.65;101675.41;4988957;28;20034;-53
2023/09/02 04:44:31;;;;;;;1.65;1.42;;;;;;;20.07;65.50;101674.56;4988268;28;20439;-53
2023/09/02 04:46:56;;;;;;;1.50;1.42;;;;;;;20.08;65.51;101676.25;4987577;28;20516;-53
2023/09/02 04:49:22;;;;;;;1.50;1.40;;;;;;;20.07;65.79;101672.72;4987672;28;20070;-53
2023/09/02 04:51:48;;;;;;;1.58;1.48;;;;;;;20.07;65.31;101682.69;4987630;28;20043;-53
2023/09/02 04:54:14;;;;;;;3.47;1.50;;;;;;;20.07;65.77;101686.22;4986870;28;20122;-52
2023/09/02 04:56:39;;;;;;;2.00;1.77;;;;;;;20.07;65.37;101683.53;4988194;28;20035;-53
2023/09/02 04:59:05;;;;;;;1.45;1.15;;;;;;;20.07;65.70;101682.69;4988624;28;20070;-53
2023/09/02 05:01:30;;;;;;;1.92;1.55;;;;;;;20.08;65.25;101681.66;4987628;28;20058;-53
2023/09/02 05:03:55;;;;;;;1.48;1.38;;;;;;;20.07;65.72;101679.97;4985990;28;20495;-53
2023/09/02 05:06:21;;;;;;;1.38;1.30;;;;;;;20.08;65.27;101678.97;4986920;28;20085;-53
2023/09/02 05:08:46;;;;;;;2.03;1.65;;;;;;;20.07;65.59;101680.81;4986920;28;20043;-52
2023/09/02 05:11:12;;;;;;;1.33;1.20;;;;;;;20.07;65.33;101675.41;4986444;28;20125;-53
2023/09/02 05:13:37;;;;;;;1.52;1.42;;;;;;;20.07;65.55;101683.53;4996645;28;20038;-53
2023/09/02 05:16:03;;;;;;;4.60;1.30;;;;;;;20.08;65.52;101678.97;4987785;28;20106;-53
2023/09/02 05:18:28;;;;;;;1.95;1.40;;;;;;;20.07;65.32;101680.81;4988104;28;20069;-53
2023/09/02 05:20:55;;;;;;;3.10;1.45;;;;;;;20.07;65.62;101693.50;4988304;28;20019;-53
2023/09/02 05:23:20;;;;;;;1.50;1.40;;;;;;;20.07;65.73;101693.50;4988608;28;20027;-54
2023/09/02 05:25:46;;;;;;;1.40;1.30;;;;;;;20.07;65.64;101696.19;4988302;28;20080;-53
2023/09/02 05:28:11;;;;;;;3.17;1.60;;;;;;;20.07;65.69;101701.59;4987771;28;20026;-51
2023/09/02 05:30:36;;;;;;;2.15;1.58;;;;;;;20.08;65.42;101706.00;4986252;28;20034;-53
2023/09/02 05:33:02;;;;;;;1.70;1.45;;;;;;;20.08;65.10;101714.13;4987207;28;20033;-53
2023/09/02 05:35:27;;;;;;;1.45;1.30;;;;;;;20.08;65.33;101719.53;4987540;28;20045;-53
2023/09/02 05:37:53;;;;;;;1.40;1.23;;;;;;;20.08;65.37;101719.53;4986762;28;20026;-52
2023/09/02 05:40:18;;;;;;;2.40;1.20;;;;;;;20.08;65.50;101719.53;4986547;28;20034;-53
2023/09/02 05:42:43;;;;;;;2.00;1.55;;;;;;;20.08;65.31;101725.78;4986587;28;20062;-53
2023/09/02 05:45:09;;;;;;;1.45;1.20;;;;;;;20.08;65.66;101722.22;4988418;28;20112;-53
2023/09/02 05:47:34;;;;;;;1.73;1.50;;;;;;;20.08;65.94;101724.94;4989460;28;20412;-53
2023/09/02 05:50:00;;;;;;;2.15;1.20;;;;;;;20.08;64.97;101724.94;4993423;28;20033;-53
2023/09/02 05:52:26;;;;;;;1.80;1.30;;;;;;;20.08;65.20;101730.34;4991967;28;20038;-53
2023/09/02 05:54:51;;;;;;;1.42;1.33;;;;;;;20.09;65.31;101734.75;4992370;28;20037;-53
2023/09/02 05:57:16;;;;;;;1.65;1.55;;;;;;;20.08;65.17;101735.75;4990771;28;20039;-53
2023/09/02 05:59:44;;;;;;;3.15;1.67;;;;;;;20.08;65.02;101738.44;4990339;28;20034;-53
2023/09/02 06:02:10;;;;;;;3.70;1.50;;;;;;;20.08;65.45;101742.00;4990612;28;20034;-53
2023/09/02 06:04:35;;;;;;;3.45;1.58;;;;;;;20.08;65.44;101744.69;4991680;28;20440;-53
2023/09/02 06:07:01;;;;;;;2.08;1.20;;;;;;;20.08;65.29;101749.25;4991826;28;20034;-53
2023/09/02 06:09:27;;;;;;;1.83;1.60;;;;;;;20.08;65.25;101741.16;4992124;28;20061;-53
2023/09/02 06:11:53;;;;;;;1.52;1.42;;;;;;;20.08;65.39;101750.09;4991558;28;20041;-53
2023/09/02 06:14:18;;;;;;;1.60;1.50;;;;;;;20.08;65.43;101738.44;4991447;28;20030;-53
2023/09/02 06:16:43;;;;;;;2.65;1.40;;;;;;;20.07;65.17;101745.72;4994021;28;20469;-53
2023/09/02 06:19:09;;;;;;;1.67;1.10;;;;;;;20.08;65.30;101752.81;4994458;28;20054;-53
2023/09/02 06:21:34;;;;;;;2.08;1.55;;;;;;;20.08;64.97;101752.81;4993671;28;20136;-53
2023/09/02 06:24:00;;;;;;;2.58;1.40;;;;;;;20.08;65.59;101765.47;4992778;28;20116;-53
2023/09/02 06:26:26;;;;;;;2.88;1.50;;;;;;;20.09;66.25;101768.06;4993167;28;20125;-53
2023/09/02 06:28:51;;;;;;;5.25;1.33;;;;;;;20.09;65.19;101767.22;4992785;28;20585;-53
2023/09/02 06:31:16;;;;;;;3.38;1.25;;;;;;;20.08;65.26;101768.19;4992195;28;20029;-53
2023/09/02 06:33:42;;;;;;;2.97;1.58;;;;;;;20.09;65.16;101769.91;4991861;28;20109;-53
2023/09/02 06:36:16;;;;;;;2.20;1.60;;;;;;;20.09;65.26;101780.72;4993587;28;20045;-53
2023/09/02 06:38:42;;;;;;;2.47;1.45;;;;;;;20.09;65.29;101780.72;4986297;28;20026;-54
2023/09/02 06:41:09;;;;;;;2.80;2.15;;;;;;;20.09;65.88;101775.31;4987108;28;20034;-53
2023/09/02 06:43:35;;;;;;;2.53;1.90;;;;;;;20.09;65.62;101778.03;4987111;28;20026;-53
2023/09/02 06:46:08;;;;;;;3.88;1.77;;;;;;;20.09;65.57;101786.13;4987711;28;20049;-53
2023/09/02 06:48:34;;;;;;;1.67;1.58;;;;;;;20.08;65.49;101792.50;4987288;28;20045;-53
2023/09/02 06:50:59;;;;;;;2.10;1.90;;;;;;;20.08;65.43;101797.91;4986802;28;20046;-53
2023/09/02 06:53:24;;;;;;;4.22;1.92;;;;;;;20.09;65.56;101802.34;4986667;28;20033;-53
2023/09/02 06:55:50;;;;;;;3.47;1.60;;;;;;;20.08;65.61;101811.44;4986849;28;20084;-53
2023/09/02 06:58:15;;;;;;;3.03;1.92;;;;;;;20.09;65.30;101821.28;4986531;28;20442;-53
2023/09/02 07:00:40;;;;;;;2.47;1.80;;;;;;;20.08;65.37;101823.09;4985665;28;20476;-53
2023/09/02 07:03:06;;;;;;;2.97;1.70;;;;;;;20.08;65.13;101827.66;4985065;28;20081;-53
2023/09/02 07:05:31;;;;;;;3.28;1.83;;;;;;;20.09;65.47;101832.09;4986041;28;20858;-53
2023/09/02 07:07:56;;;;;;;4.13;1.88;;;;;;;20.09;65.30;101840.19;4986119;28;20170;-53
2023/09/02 07:10:22;;;;;;;3.33;1.95;;;;;;;20.09;65.13;101840.19;4986209;28;20030;-51
2023/09/02 07:12:52;;;;;;;2.50;1.95;;;;;;;20.08;65.19;101843.88;4985538;28;20059;-53
2023/09/02 07:15:17;;;;;;;2.95;1.88;;;;;;;20.09;65.32;101851.03;4985836;28;20038;-53
2023/09/02 07:17:42;;;;;;;2.83;1.65;;;;;;;20.08;65.19;101860.94;4986686;28;20038;-53
2023/09/02 07:20:08;;;;;;;5.32;1.83;;;;;;;20.09;65.09;101859.13;4992406;28;20051;-53
2023/09/02 07:22:34;;;;;;;4.57;2.40;;;;;;;20.08;65.92;101857.41;4992042;28;20487;-53
2023/09/02 07:25:00;;;;;;;6.07;2.60;;;;;;;20.09;66.34;101862.69;4992273;28;20105;-53
2023/09/02 07:27:25;;;;;;;5.68;2.25;;;;;;;20.10;66.05;101863.53;4992185;28;20484;-53
2023/09/02 07:29:50;;;;;;;4.57;2.58;;;;;;;20.10;66.15;101867.13;4990847;28;20046;-53
2023/09/02 07:32:16;;;;;;;11.23;2.95;;;;;;;20.11;66.18;101871.50;4991957;28;20034;-52
2023/09/02 07:34:41;;;;;;;5.25;2.50;;;;;;;20.11;66.55;101867.97;4992986;28;20469;-52
2023/09/02 07:37:07;;;;;;;10.52;2.53;;;;;;;20.11;66.43;101866.09;4990197;28;20038;-52
2023/09/02 07:39:32;;;;;;;8.88;2.65;;;;;;;20.11;66.18;101876.06;4992287;28;20035;-52
2023/09/02 07:41:58;;;;;;;10.90;3.08;;;;;;;20.11;66.59;101878.78;4992028;28;20399;-52
2023/09/02 07:44:23;;;;;;;12.55;2.67;;;;;;;20.11;66.51;101876.91;4995942;28;20027;-52
2023/09/02 07:46:50;;;;;;;8.85;2.50;;;;;;;20.11;65.98;101884.19;4995643;28;20444;-52
2023/09/02 07:49:16;;;;;;;3.67;2.40;;;;;;;20.10;66.93;101877.94;4994501;28;20049;-52
2023/09/02 07:51:43;;;;;;;4.13;2.35;;;;;;;20.10;66.73;101886.03;4996148;28;20026;-51
2023/09/02 07:54:09;;;;;;;10.40;2.92;;;;;;;20.12;66.43;101891.28;4995592;28;20026;-52
2023/09/02 07:56:34;;;;;;;8.98;2.88;;;;;;;20.13;67.34;101900.28;4987659;28;20034;-51
2023/09/02 07:58:59;;;;;;;15.30;2.60;;;;;;;20.11;66.79;101886.88;4990604;28;20473;-52
2023/09/02 08:01:25;;;;;;;6.63;2.67;;;;;;;20.13;67.18;101886.75;4990451;28;20508;-52
2023/09/02 08:03:50;;;;;;;10.88;2.83;;;;;;;20.12;67.12;101894.00;4990615;28;20498;-52
2023/09/02 08:06:16;;;;;;;5.78;2.58;;;;;;;20.12;66.54;101891.28;4989701;28;20433;-53
2023/09/02 08:08:41;;;;;;;5.45;2.35;;;;;;;20.14;66.89;101888.44;4989877;28;20026;-52
2023/09/02 08:11:07;;;;;;;5.10;2.60;;;;;;;20.13;66.62;101895.72;4989449;28;20034;-52
2023/09/02 08:13:33;;;;;;;4.80;2.72;;;;;;;20.12;66.75;101896.69;4989198;28;20034;-52
2023/09/02 08:16:03;;;;;;;8.48;2.42;;;;;;;20.13;66.71;101900.28;4989085;28;20026;-52
2023/09/02 08:18:28;;;;;;;4.93;2.17;;;;;;;20.12;66.50;101904.81;4988005;28;20129;-51
2023/09/02 08:20:53;;;;;;;9.15;2.92;;;;;;;20.14;66.50;101904.69;4988598;28;20459;-52
2023/09/02 08:23:19;;;;;;;3.20;2.20;;;;;;;20.13;66.84;101903.81;4988075;28;20050;-52
2023/09/02 08:25:44;;;;;;;7.28;3.00;;;;;;;20.14;66.44;101901.97;4988396;28;20038;-52
2023/09/02 08:28:09;;;;;;;8.68;3.75;;;;;;;20.14;66.62;101899.28;4991225;28;20041;-52
2023/09/02 08:30:38;;;;;;;9.25;3.95;;;;;;;20.15;67.10;101896.44;4992982;28;20491;-52
2023/09/02 08:33:04;;;;;;;9.05;4.22;;;;;;;20.14;66.94;101892.00;4993477;28;20022;-52
2023/09/02 08:35:34;;;;;;;9.40;4.47;;;;;;;20.14;66.98;101902.81;4993396;28;20469;-52
2023/09/02 08:37:59;;;;;;;13.00;6.63;;;;;;;20.14;67.26;101910.09;4993626;28;20030;-52
2023/09/02 08:40:25;;;;;;;18.42;6.45;;;;;;;20.15;67.01;101915.38;4993428;28;20286;-52
2023/09/02 08:42:50;;;;;;;22.85;8.23;;;;;;;20.15;67.33;101914.50;4992997;28;20084;-52
2023/09/02 08:45:19;;;;;;;14.70;7.00;;;;;;;20.15;67.14;101915.38;4994018;28;20117;-52
2023/09/02 08:47:48;;;;;;;17.80;7.55;;;;;;;20.16;67.21;101921.63;4994452;28;20089;-52
2023/09/02 08:50:16;;;;;;;17.42;7.40;;;;;;;20.16;67.33;101927.03;4991980;28;20030;-52
2023/09/02 08:52:41;;;;;;;18.80;7.28;;;;;;;20.17;67.17;101926.06;4993856;28;20045;-52
2023/09/02 08:55:07;;;;;;;10.02;6.93;;;;;;;20.17;67.66;101935.00;4994770;28;20034;-52
2023/09/02 08:57:34;;;;;;;19.20;7.57;;;;;;;20.17;67.66;101932.31;4991564;28;20042;-52
2023/09/02 09:00:00;;;;;;;14.23;7.00;;;;;;;20.18;67.47;101930.44;4991861;28;20472;-52
2023/09/02 09:02:27;;;;;;;10.30;6.55;;;;;;;20.18;67.76;101931.34;4991500;28;20037;-52
2023/09/02 09:04:53;;;;;;;15.07;6.68;;;;;;;20.19;67.59;101937.59;4988406;28;20477;-52
2023/09/02 09:07:20;;;;;;;11.90;6.22;;;;;;;20.19;67.60;101940.28;4988176;28;20073;-52
2023/09/02 09:09:47;;;;;;;14.68;6.70;;;;;;;20.19;67.49;101941.13;4988351;28;20042;-52
2023/09/02 09:12:13;;;;;;;13.15;6.72;;;;;;;20.20;67.86;101945.56;4988342;28;20118;-52
2023/09/02 09:14:45;;;;;;;14.90;6.93;;;;;;;20.19;67.76;101943.84;4988752;28;20116;-50
2023/09/02 09:17:13;;;;;;;12.93;6.82;;;;;;;20.19;67.49;101949.25;4987691;28;20039;-52
2023/09/02 09:19:39;;;;;;;14.57;6.85;;;;;;;20.20;68.05;101944.69;4987646;28;20062;-52
2023/09/02 09:22:04;;;;;;;14.50;6.78;;;;;;;20.21;68.21;101946.41;4987830;28;20146;-52
2023/09/02 09:24:30;;;;;;;12.30;7.43;;;;;;;20.21;67.83;101941.84;4987684;28;20062;-52
2023/09/02 09:26:59;;;;;;;15.13;6.72;;;;;;;20.22;68.29;101942.72;4987395;28;20080;-55
2023/09/02 09:29:24;;;;;;;11.23;6.70;;;;;;;20.22;67.69;101943.59;4987632;28;20034;-53
2023/09/02 09:32:06;;;;;;;10.82;7.18;;;;;;;20.23;67.97;101945.28;4987697;28;20460;-53
2023/09/02 09:34:37;;;;;;;11.95;7.80;;;;;;;20.22;68.31;101959.81;4986634;28;20026;-52
2023/09/02 09:37:02;;;;;;;18.85;8.88;;;;;;;20.23;68.36;101966.91;4987120;28;20037;-52
2023/09/02 09:39:41;;;;;;;14.30;9.48;;;;;;;20.24;68.44;101979.47;4987516;28;20427;-53
2023/09/02 09:42:07;;;;;;;14.07;9.27;;;;;;;20.24;68.91;101973.22;4986883;28;20030;-52
2023/09/02 09:44:33;;;;;;;13.68;9.48;;;;;;;20.25;69.08;101981.16;4986412;28;20038;-52
2023/09/02 09:46:58;;;;;;;16.60;8.82;;;;;;;20.26;69.44;101982.03;4986595;28;20034;-51
2023/09/02 09:49:31;;;;;;;16.35;10.63;;;;;;;20.26;69.42;101993.72;4986467;28;20038;-53
2023/09/02 09:52:00;;;;;;;17.70;11.00;;;;;;;20.27;68.94;101991.84;4986303;28;20078;-52
2023/09/02 09:54:56;;;;;;;17.13;11.30;;;;;;;20.31;68.50;101994.19;4986739;28;20109;-52
2023/09/02 09:57:30;;;;;;;19.92;9.60;;;;;;;20.31;68.90;101987.88;4988742;28;20045;-54
2023/09/02 09:59:57;;;;;;;15.38;11.35;;;;;;;20.31;69.44;101991.47;4986751;28;20129;-52
2023/09/02 10:02:22;;;;;;;23.42;11.50;;;;;;;20.30;69.40;101984.34;4986859;28;20038;-50
2023/09/02 10:04:52;;;;;;;22.40;12.20;;;;;;;20.31;69.69;101988.75;4988586;28;20042;-52
2023/09/02 10:07:26;;;;;;;29.15;11.68;;;;;;;20.33;69.50;101995.88;4993951;28;20396;-52
2023/09/02 10:09:57;;;;;;;17.40;11.85;;;;;;;20.33;69.62;101998.56;4987329;28;20066;-52
2023/09/02 10:12:23;;;;;;;19.58;11.00;;;;;;;20.33;69.73;101998.56;4986511;28;20380;-52
2023/09/02 10:14:49;;;;;;;17.50;11.63;;;;;;;20.32;69.83;101997.72;4986827;28;20034;-50
2023/09/02 10:17:16;;;;;;;18.38;10.95;;;;;;;20.33;69.88;102002.13;4986062;28;20038;-52
2023/09/02 10:19:43;;;;;;;18.27;11.52;;;;;;;20.35;70.20;102012.81;4986071;28;20057;-52
2023/09/02 10:22:08;;;;;;;17.33;11.93;;;;;;;20.35;70.52;102018.22;4990754;28;20031;-52
2023/09/02 10:25:05;;;;;;;18.58;12.98;;;;;;;20.37;70.00;102021.66;4986869;28;20081;-52
2023/09/02 10:27:36;;;;;;;15.77;12.35;;;;;;;20.36;70.43;102020.81;4985952;28;20492;-52
2023/09/02 10:30:02;;;;;;;16.70;11.27;;;;;;;20.36;70.29;102014.56;4987619;28;20023;-52
2023/09/02 10:32:41;;;;;;;16.02;11.43;;;;;;;20.37;70.33;102021.66;4991315;28;20042;-52
2023/09/02 10:35:19;;;;;;;18.10;11.93;;;;;;;20.38;70.69;102020.69;4989095;28;20029;-52
2023/09/02 10:37:54;;;;;;;15.35;11.88;;;;;;;20.38;70.99;102024.25;4987455;28;20026;-52
2023/09/02 10:40:23;;;;;;;17.15;12.70;;;;;;;20.38;71.03;102028.78;4992367;28;20050;-52
2023/09/02 10:42:49;;;;;;;17.17;12.27;;;;;;;20.37;71.25;102027.94;4992356;28;20033;-52
2023/09/02 10:45:17;;;;;;;15.10;11.20;;;;;;;20.38;70.23;102028.78;4992753;28;20045;-52
2023/09/02 10:47:46;;;;;;;16.58;13.32;;;;;;;20.38;71.55;102026.94;4990509;28;20034;-52
2023/09/02 10:50:15;;;;;;;17.50;12.70;;;;;;;20.39;71.14;102030.50;4989276;28;20473;-52
2023/09/02 10:52:40;;;;;;;16.23;13.70;;;;;;;20.39;71.16;102031.38;4989760;28;20094;-53
2023/09/02 10:55:08;;;;;;;18.77;12.88;;;;;;;20.40;71.40;102034.94;4991400;28;20112;-52
2023/09/02 10:57:50;;;;;;;17.55;12.88;;;;;;;20.41;70.83;102028.50;4989490;28;20436;-53
2023/09/02 11:00:17;;;;;;;17.52;12.13;;;;;;;20.41;71.62;102028.50;4990579;28;20422;-52
2023/09/02 11:02:44;;;;;;;14.60;12.98;;;;;;;20.40;71.26;102037.63;4991078;28;20362;-52
2023/09/02 11:05:10;;;;;;;17.63;13.27;;;;;;;20.41;71.42;102037.50;4989993;28;20022;-52
2023/09/02 11:07:39;;;;;;;17.05;12.43;;;;;;;20.40;71.23;102037.63;4991497;28;20034;-52
2023/09/02 11:10:06;;;;;;;13.85;12.35;;;;;;;20.41;71.50;102040.22;4993143;28;20117;-52
2023/09/02 11:12:33;;;;;;;13.93;12.43;;;;;;;20.42;71.71;102043.75;4991419;28;20093;-52
2023/09/02 11:15:07;;;;;;;18.08;13.18;;;;;;;20.42;71.22;102041.06;4991165;28;20022;-52
2023/09/02 11:17:34;;;;;;;14.77;11.77;;;;;;;20.41;71.29;102048.34;4992746;28;20476;-52
2023/09/02 11:20:13;;;;;;;18.40;13.13;;;;;;;20.42;71.45;102051.88;4995193;28;20104;-52